sensor_id;sensor_type;location;lat;lon;timestamp;pressure;altitude;pressure_sealevel;temperature;humidity
1848;BME280;924;52.448;13.356;2023-03-19T00:01:07;100773.09;;;14.92;52.12
1848;BME280;924;52.448;13.356;2023-03-19T00:03:33;100761.50;;;14.78;52.38
1848;BME280;924;52.448;13.356;2023-03-19T00:05:59;100759.84;;;15.07;51.15
1848;BME280;924;52.448;13.356;2023-03-19T00:08:25;100760.13;;;15.16;50.91
1848;BME280;924;52.448;13.356;2023-03-19T00:10:50;100759.63;;;15.08;50.73
1848;BME280;924;52.448;13.356;2023-03-19T00:13:16;100761.22;;;14.68;52.87
1848;BME280;924;52.448;13.356;2023-03-19T00:15:42;100768.78;;;15.13;50.81
1848;BME280;924;52.448;13.356;2023-03-19T00:18:07;100760.78;;;15.30;49.75
1848;BME280;924;52.448;13.356;2023-03-19T00:20:33;100758.31;;;15.10;49.54
1848;BME280;924;52.448;13.356;2023-03-19T00:22:59;100757.16;;;14.89;50.08
1848;BME280;924;52.448;13.356;2023-03-19T00:25:24;100762.44;;;14.72;50.32
1848;BME280;924;52.448;13.356;2023-03-19T00:27:50;100760.22;;;14.81;50.64
1848;BME280;924;52.448;13.356;2023-03-19T00:30:17;100762.28;;;14.49;51.45
1848;BME280;924;52.448;13.356;2023-03-19T00:32:43;100760.94;;;14.58;50.38
1848;BME280;924;52.448;13.356;2023-03-19T00:35:08;100764.97;;;14.85;49.41
1848;BME280;924;52.448;13.356;2023-03-19T00:37:34;100756.13;;;14.72;49.35
1848;BME280;924;52.448;13.356;2023-03-19T00:40:00;100764.78;;;14.69;49.77
1848;BME280;924;52.448;13.356;2023-03-19T00:42:26;100754.34;;;14.48;50.05
1848;BME280;924;52.448;13.356;2023-03-19T00:44:51;100763.22;;;14.91;48.55
1848;BME280;924;52.448;13.356;2023-03-19T00:47:17;100766.28;;;14.65;48.61
1848;BME280;924;52.448;13.356;2023-03-19T00:49:42;100759.25;;;14.57;48.74
1848;BME280;924;52.448;13.356;2023-03-19T00:52:08;100771.75;;;14.29;49.81
1848;BME280;924;52.448;13.356;2023-03-19T00:54:33;100767.59;;;14.26;49.75
1848;BME280;924;52.448;13.356;2023-03-19T00:56:59;100766.59;;;14.39;48.99
1848;BME280;924;52.448;13.356;2023-03-19T00:59:25;100767.88;;;14.18;50.00
1848;BME280;924;52.448;13.356;2023-03-19T01:01:51;100767.16;;;14.29;49.56
1848;BME280;924;52.448;13.356;2023-03-19T01:04:16;100763.28;;;14.19;49.73
1848;BME280;924;52.448;13.356;2023-03-19T01:06:42;100769.28;;;14.27;49.32
1848;BME280;924;52.448;13.356;2023-03-19T01:09:08;100767.09;;;14.11;49.95
1848;BME280;924;52.448;13.356;2023-03-19T01:11:34;100771.53;;;14.30;49.73
1848;BME280;924;52.448;13.356;2023-03-19T01:14:00;100769.00;;;14.11;49.71
1848;BME280;924;52.448;13.356;2023-03-19T01:16:26;100770.97;;;14.04;49.61
1848;BME280;924;52.448;13.356;2023-03-19T01:18:51;100769.50;;;14.01;49.57
1848;BME280;924;52.448;13.356;2023-03-19T01:21:17;100774.97;;;14.01;49.41
1848;BME280;924;52.448;13.356;2023-03-19T01:23:43;100769.66;;;13.88;49.27
1848;BME280;924;52.448;13.356;2023-03-19T01:26:08;100772.63;;;13.56;50.23
1848;BME280;924;52.448;13.356;2023-03-19T01:28:34;100771.41;;;13.76;49.70
1848;BME280;924;52.448;13.356;2023-03-19T01:31:01;100768.97;;;13.44;50.23
1848;BME280;924;52.448;13.356;2023-03-19T01:33:29;100775.16;;;13.57;50.26
1848;BME280;924;52.448;13.356;2023-03-19T01:35:55;100775.31;;;13.62;49.55
1848;BME280;924;52.448;13.356;2023-03-19T01:38:22;100775.03;;;13.70;49.53
1848;BME280;924;52.448;13.356;2023-03-19T01:40:48;100772.41;;;13.82;49.05
1848;BME280;924;52.448;13.356;2023-03-19T01:43:24;100779.28;;;13.84;48.90
1848;BME280;924;52.448;13.356;2023-03-19T01:45:53;100772.31;;;13.46;50.10
1848;BME280;924;52.448;13.356;2023-03-19T01:50:56;100781.41;;;13.58;50.32
1848;BME280;924;52.448;13.356;2023-03-19T01:53:29;100783.63;;;13.43;50.32
1848;BME280;924;52.448;13.356;2023-03-19T01:55:59;100781.44;;;13.27;50.97
1848;BME280;924;52.448;13.356;2023-03-19T01:58:27;100775.53;;;13.30;50.91
1848;BME280;924;52.448;13.356;2023-03-19T02:00:53;100779.97;;;13.31;51.07
1848;BME280;924;52.448;13.356;2023-03-19T02:03:19;100779.28;;;13.36;50.69
1848;BME280;924;52.448;13.356;2023-03-19T02:05:45;100776.72;;;13.41;50.64
1848;BME280;924;52.448;13.356;2023-03-19T02:08:14;100780.47;;;13.46;50.80
1848;BME280;924;52.448;13.356;2023-03-19T02:10:41;100769.91;;;13.56;49.67
1848;BME280;924;52.448;13.356;2023-03-19T02:13:07;100765.38;;;13.19;50.68
1848;BME280;924;52.448;13.356;2023-03-19T02:15:33;100767.03;;;13.20;51.05
1848;BME280;924;52.448;13.356;2023-03-19T02:17:58;100763.69;;;13.49;49.86
1848;BME280;924;52.448;13.356;2023-03-19T02:20:40;100759.09;;;13.50;49.33
1848;BME280;924;52.448;13.356;2023-03-19T02:26:10;100763.66;;;13.56;49.02
1848;BME280;924;52.448;13.356;2023-03-19T02:28:39;100763.72;;;13.43;49.43
1848;BME280;924;52.448;13.356;2023-03-19T02:31:06;100774.31;;;13.26;49.42
1848;BME280;924;52.448;13.356;2023-03-19T02:33:31;100761.97;;;13.55;48.35
1848;BME280;924;52.448;13.356;2023-03-19T02:35:57;100766.28;;;13.38;49.37
1848;BME280;924;52.448;13.356;2023-03-19T02:38:24;100768.72;;;13.46;49.19
1848;BME280;924;52.448;13.356;2023-03-19T02:40:59;100767.19;;;13.25;49.90
1848;BME280;924;52.448;13.356;2023-03-19T02:43:25;100774.31;;;13.26;50.06
1848;BME280;924;52.448;13.356;2023-03-19T02:45:51;100767.81;;;13.27;50.12
1848;BME280;924;52.448;13.356;2023-03-19T02:48:17;100762.13;;;13.35;49.92
1848;BME280;924;52.448;13.356;2023-03-19T02:50:43;100755.88;;;13.28;50.45
1848;BME280;924;52.448;13.356;2023-03-19T02:53:08;100761.16;;;13.23;49.83
1848;BME280;924;52.448;13.356;2023-03-19T02:55:34;100763.22;;;13.28;50.20
1848;BME280;924;52.448;13.356;2023-03-19T02:57:59;100764.31;;;13.20;49.86
1848;BME280;924;52.448;13.356;2023-03-19T03:00:25;100761.25;;;13.65;48.54
1848;BME280;924;52.448;13.356;2023-03-19T03:02:50;100756.41;;;13.43;48.78
1848;BME280;924;52.448;13.356;2023-03-19T03:05:16;100757.06;;;13.63;48.17
1848;BME280;924;52.448;13.356;2023-03-19T03:07:41;100750.50;;;13.46;48.58
1848;BME280;924;52.448;13.356;2023-03-19T03:10:09;100758.34;;;13.36;49.44
1848;BME280;924;52.448;13.356;2023-03-19T03:12:35;100762.00;;;13.24;49.99
1848;BME280;924;52.448;13.356;2023-03-19T03:15:00;100762.34;;;13.34;49.50
1848;BME280;924;52.448;13.356;2023-03-19T03:17:26;100767.63;;;13.53;48.60
1848;BME280;924;52.448;13.356;2023-03-19T03:19:52;100769.69;;;13.33;48.77
1848;BME280;924;52.448;13.356;2023-03-19T03:22:17;100770.91;;;13.37;48.82
1848;BME280;924;52.448;13.356;2023-03-19T03:24:42;100765.78;;;13.47;48.29
1848;BME280;924;52.448;13.356;2023-03-19T03:27:08;100771.84;;;13.49;48.31
1848;BME280;924;52.448;13.356;2023-03-19T03:29:33;100776.56;;;13.36;48.73
1848;BME280;924;52.448;13.356;2023-03-19T03:31:59;100766.88;;;13.15;49.86
1848;BME280;924;52.448;13.356;2023-03-19T03:34:24;100779.81;;;13.20;49.86
1848;BME280;924;52.448;13.356;2023-03-19T03:36:50;100785.41;;;13.31;49.39
1848;BME280;924;52.448;13.356;2023-03-19T03:39:16;100809.44;;;13.03;50.17
1848;BME280;924;52.448;13.356;2023-03-19T03:41:43;100819.53;;;12.96;51.41
1848;BME280;924;52.448;13.356;2023-03-19T03:44:08;100817.38;;;13.05;52.20
1848;BME280;924;52.448;13.356;2023-03-19T03:46:34;100812.72;;;13.12;51.73
1848;BME280;924;52.448;13.356;2023-03-19T03:48:59;100826.13;;;13.13;51.18
1848;BME280;924;52.448;13.356;2023-03-19T03:51:25;100814.84;;;13.41;50.59
1848;BME280;924;52.448;13.356;2023-03-19T03:53:51;100802.72;;;13.37;50.09
1848;BME280;924;52.448;13.356;2023-03-19T03:56:16;100809.19;;;13.42;49.82
1848;BME280;924;52.448;13.356;2023-03-19T03:58:41;100816.91;;;13.14;50.21
1848;BME280;924;52.448;13.356;2023-03-19T04:01:07;100812.84;;;13.30;50.53
1848;BME280;924;52.448;13.356;2023-03-19T04:03:33;100823.81;;;13.17;50.02
1848;BME280;924;52.448;13.356;2023-03-19T04:05:59;100816.03;;;13.20;50.52
1848;BME280;924;52.448;13.356;2023-03-19T04:08:25;100820.03;;;13.18;50.73
1848;BME280;924;52.448;13.356;2023-03-19T04:10:50;100823.88;;;13.04;51.28
1848;BME280;924;52.448;13.356;2023-03-19T04:13:15;100828.06;;;13.00;52.00
1848;BME280;924;52.448;13.356;2023-03-19T04:15:42;100824.72;;;13.04;51.16
1848;BME280;924;52.448;13.356;2023-03-19T04:18:07;100830.78;;;13.06;51.40
1848;BME280;924;52.448;13.356;2023-03-19T04:20:33;100836.41;;;13.11;51.34
1848;BME280;924;52.448;13.356;2023-03-19T04:22:58;100844.56;;;13.11;nan
1848;BME280;924;52.448;13.356;2023-03-19T04:25:24;100838.97;;;13.00;52.27
1848;BME280;924;52.448;13.356;2023-03-19T04:27:50;100842.72;;;13.05;51.01
1848;BME280;924;52.448;13.356;2023-03-19T04:30:15;100849.41;;;13.09;51.25
1848;BME280;924;52.448;13.356;2023-03-19T04:32:40;100846.50;;;12.98;51.59
1848;BME280;924;52.448;13.356;2023-03-19T04:35:08;100855.25;;;13.13;51.60
1848;BME280;924;52.448;13.356;2023-03-19T04:37:34;100850.91;;;12.92;52.75
1848;BME280;924;52.448;13.356;2023-03-19T04:39:59;100842.94;;;12.91;52.99
1848;BME280;924;52.448;13.356;2023-03-19T04:42:25;100840.53;;;13.20;52.45
1848;BME280;924;52.448;13.356;2023-03-19T04:44:50;100843.00;;;13.28;52.13
1848;BME280;924;52.448;13.356;2023-03-19T04:47:16;100851.72;;;13.43;52.17
1848;BME280;924;52.448;13.356;2023-03-19T04:49:42;100843.31;;;13.14;53.59
1848;BME280;924;52.448;13.356;2023-03-19T04:52:07;100856.66;;;13.22;53.99
1848;BME280;924;52.448;13.356;2023-03-19T04:54:33;100854.00;;;13.46;52.75
1848;BME280;924;52.448;13.356;2023-03-19T04:56:58;100860.75;;;13.37;53.17
1848;BME280;924;52.448;13.356;2023-03-19T04:59:24;100856.47;;;13.17;53.95
1848;BME280;924;52.448;13.356;2023-03-19T05:01:49;100847.47;;;13.16;54.67
1848;BME280;924;52.448;13.356;2023-03-19T05:04:15;100825.34;;;13.06;56.68
1848;BME280;924;52.448;13.356;2023-03-19T05:06:40;100820.53;;;13.02;57.64
1848;BME280;924;52.448;13.356;2023-03-19T05:09:06;100813.50;;;12.75;58.71
1848;BME280;924;52.448;13.356;2023-03-19T05:11:32;100801.88;;;13.05;57.48
1848;BME280;924;52.448;13.356;2023-03-19T05:13:57;100811.53;;;13.01;58.90
1848;BME280;924;52.448;13.356;2023-03-19T05:16:22;100832.19;;;13.15;59.76
1848;BME280;924;52.448;13.356;2023-03-19T05:18:48;100818.91;;;12.94;60.86
1848;BME280;924;52.448;13.356;2023-03-19T05:21:14;100803.81;;;12.85;61.42
1848;BME280;924;52.448;13.356;2023-03-19T05:23:40;100797.31;;;12.49;63.84
1848;BME280;924;52.448;13.356;2023-03-19T05:26:06;100801.00;;;12.61;64.19
1848;BME280;924;52.448;13.356;2023-03-19T05:28:33;100792.38;;;12.77;62.90
1848;BME280;924;52.448;13.356;2023-03-19T05:30:58;100782.06;;;12.92;62.72
1848;BME280;924;52.448;13.356;2023-03-19T05:33:24;100787.38;;;13.18;61.76
1848;BME280;924;52.448;13.356;2023-03-19T05:35:50;100795.28;;;13.26;62.20
1848;BME280;924;52.448;13.356;2023-03-19T05:38:16;100794.66;;;13.55;62.19
1848;BME280;924;52.448;13.356;2023-03-19T05:40:42;100801.94;;;12.92;65.09
1848;BME280;924;52.448;13.356;2023-03-19T05:43:08;100808.47;;;12.21;65.85
1848;BME280;924;52.448;13.356;2023-03-19T05:45:34;100798.59;;;12.33;64.80
1848;BME280;924;52.448;13.356;2023-03-19T05:48:01;100798.03;;;11.93;66.90
1848;BME280;924;52.448;13.356;2023-03-19T05:50:26;100810.91;;;12.36;64.66
1848;BME280;924;52.448;13.356;2023-03-19T05:52:52;100809.03;;;12.43;64.61
1848;BME280;924;52.448;13.356;2023-03-19T05:55:17;100808.13;;;12.55;64.43
1848;BME280;924;52.448;13.356;2023-03-19T05:57:42;100801.94;;;12.35;64.56
1848;BME280;924;52.448;13.356;2023-03-19T06:00:09;100802.56;;;12.37;64.38
1848;BME280;924;52.448;13.356;2023-03-19T06:02:35;100805.66;;;12.54;63.56
1848;BME280;924;52.448;13.356;2023-03-19T06:05:01;100809.16;;;12.61;63.56
1848;BME280;924;52.448;13.356;2023-03-19T06:07:26;100814.34;;;12.69;63.55
1848;BME280;924;52.448;13.356;2023-03-19T06:09:52;100809.41;;;12.59;63.42
1848;BME280;924;52.448;13.356;2023-03-19T06:12:17;100811.47;;;12.57;63.40
1848;BME280;924;52.448;13.356;2023-03-19T06:14:43;100812.63;;;12.30;64.23
1848;BME280;924;52.448;13.356;2023-03-19T06:17:08;100820.41;;;12.71;62.28
1848;BME280;924;52.448;13.356;2023-03-19T06:19:34;100815.94;;;12.89;62.33
1848;BME280;924;52.448;13.356;2023-03-19T06:22:00;100823.06;;;12.97;61.64
1848;BME280;924;52.448;13.356;2023-03-19T06:24:25;100833.53;;;13.00;61.30
1848;BME280;924;52.448;13.356;2023-03-19T06:26:51;100834.88;;;13.22;61.05
1848;BME280;924;52.448;13.356;2023-03-19T06:29:16;100833.34;;;12.95;61.75
1848;BME280;924;52.448;13.356;2023-03-19T06:31:41;100837.28;;;13.05;62.04
1848;BME280;924;52.448;13.356;2023-03-19T06:34:08;100834.38;;;12.94;61.89
1848;BME280;924;52.448;13.356;2023-03-19T06:36:34;100838.03;;;12.68;61.47
1848;BME280;924;52.448;13.356;2023-03-19T06:38:59;100852.81;;;12.85;61.24
1848;BME280;924;52.448;13.356;2023-03-19T06:41:24;100863.00;;;13.09;60.22
1848;BME280;924;52.448;13.356;2023-03-19T06:43:50;100875.59;;;12.91;61.86
1848;BME280;924;52.448;13.356;2023-03-19T06:46:15;100883.53;;;13.05;62.25
1848;BME280;924;52.448;13.356;2023-03-19T06:48:41;100883.53;;;13.05;62.67
1848;BME280;924;52.448;13.356;2023-03-19T06:51:06;100888.19;;;13.42;61.51
1848;BME280;924;52.448;13.356;2023-03-19T06:53:32;100897.66;;;13.33;62.21
1848;BME280;924;52.448;13.356;2023-03-19T06:55:57;100903.81;;;13.09;62.88
1848;BME280;924;52.448;13.356;2023-03-19T06:58:23;100913.88;;;13.09;64.71
1848;BME280;924;52.448;13.356;2023-03-19T07:00:48;100936.72;;;13.01;64.76
1848;BME280;924;52.448;13.356;2023-03-19T07:03:14;100944.13;;;13.38;63.58
1848;BME280;924;52.448;13.356;2023-03-19T07:05:39;100962.41;;;13.25;63.88
1848;BME280;924;52.448;13.356;2023-03-19T07:08:05;100972.41;;;13.37;63.12
1848;BME280;924;52.448;13.356;2023-03-19T07:10:36;100964.88;;;13.26;62.83
1848;BME280;924;52.448;13.356;2023-03-19T07:13:02;100964.56;;;13.03;63.23
1848;BME280;924;52.448;13.356;2023-03-19T07:15:27;100967.53;;;12.95;63.69
1848;BME280;924;52.448;13.356;2023-03-19T07:17:53;100979.19;;;13.15;63.39
1848;BME280;924;52.448;13.356;2023-03-19T07:20:18;100960.81;;;13.55;62.40
1848;BME280;924;52.448;13.356;2023-03-19T07:22:44;100938.00;;;13.49;62.30
1848;BME280;924;52.448;13.356;2023-03-19T07:25:09;100945.56;;;13.41;62.60
1848;BME280;924;52.448;13.356;2023-03-19T07:27:34;100947.66;;;13.39;62.75
1848;BME280;924;52.448;13.356;2023-03-19T07:30:00;100935.16;;;13.31;62.33
1848;BME280;924;52.448;13.356;2023-03-19T07:32:25;100916.03;;;13.38;63.08
1848;BME280;924;52.448;13.356;2023-03-19T07:34:51;100900.94;;;13.42;62.69
1848;BME280;924;52.448;13.356;2023-03-19T07:37:16;100902.75;;;13.54;62.49
1848;BME280;924;52.448;13.356;2023-03-19T07:39:42;100899.31;;;13.96;62.04
1848;BME280;924;52.448;13.356;2023-03-19T07:42:07;100895.06;;;13.75;62.57
1848;BME280;924;52.448;13.356;2023-03-19T07:44:32;100896.88;;;13.88;63.05
1848;BME280;924;52.448;13.356;2023-03-19T07:46:58;100897.09;;;14.17;60.21
1848;BME280;924;52.448;13.356;2023-03-19T07:49:23;100900.69;;;14.60;59.91
1848;BME280;924;52.448;13.356;2023-03-19T07:51:49;100897.59;;;14.93;58.91
1848;BME280;924;52.448;13.356;2023-03-19T07:54:15;100901.94;;;15.00;58.07
1848;BME280;924;52.448;13.356;2023-03-19T07:56:40;100907.59;;;14.81;58.25
1848;BME280;924;52.448;13.356;2023-03-19T07:59:06;100915.47;;;14.71;58.73
1848;BME280;924;52.448;13.356;2023-03-19T08:01:31;100915.34;;;15.02;58.41
1848;BME280;924;52.448;13.356;2023-03-19T08:03:57;100900.38;;;14.86;57.74
1848;BME280;924;52.448;13.356;2023-03-19T08:06:22;100910.94;;;15.01;57.96
1848;BME280;924;52.448;13.356;2023-03-19T08:08:48;100906.38;;;15.12;57.75
1848;BME280;924;52.448;13.356;2023-03-19T08:11:14;100919.47;;;15.28;56.98
1848;BME280;924;52.448;13.356;2023-03-19T08:13:39;100900.75;;;15.25;56.94
1848;BME280;924;52.448;13.356;2023-03-19T08:16:05;100914.13;;;15.33;55.50
1848;BME280;924;52.448;13.356;2023-03-19T08:18:31;100926.25;;;15.02;56.55
1848;BME280;924;52.448;13.356;2023-03-19T08:20:56;100927.00;;;15.08;57.61
1848;BME280;924;52.448;13.356;2023-03-19T08:23:21;100945.31;;;15.08;58.99
1848;BME280;924;52.448;13.356;2023-03-19T08:25:47;100971.19;;;15.23;58.64
1848;BME280;924;52.448;13.356;2023-03-19T08:28:12;100977.63;;;15.29;58.67
1848;BME280;924;52.448;13.356;2023-03-19T08:30:38;100991.03;;;15.12;59.57
1848;BME280;924;52.448;13.356;2023-03-19T08:33:04;100989.91;;;15.20;59.58
1848;BME280;924;52.448;13.356;2023-03-19T08:35:30;101006.50;;;15.01;60.35
1848;BME280;924;52.448;13.356;2023-03-19T08:37:55;101006.09;;;14.79;60.78
1848;BME280;924;52.448;13.356;2023-03-19T08:40:21;101009.72;;;14.49;62.04
1848;BME280;924;52.448;13.356;2023-03-19T08:42:47;101004.78;;;14.33;62.97
1848;BME280;924;52.448;13.356;2023-03-19T08:45:13;101000.59;;;13.99;64.24
1848;BME280;924;52.448;13.356;2023-03-19T08:47:40;100999.56;;;13.94;64.62
1848;BME280;924;52.448;13.356;2023-03-19T08:50:06;101004.38;;;13.98;64.72
1848;BME280;924;52.448;13.356;2023-03-19T08:52:32;100993.94;;;13.45;66.22
1848;BME280;924;52.448;13.356;2023-03-19T08:54:57;100982.94;;;13.71;65.34
1848;BME280;924;52.448;13.356;2023-03-19T08:57:23;100960.63;;;13.50;65.79
1848;BME280;924;52.448;13.356;2023-03-19T08:59:48;100938.97;;;13.11;68.00
1848;BME280;924;52.448;13.356;2023-03-19T09:02:13;100929.28;;;13.28;68.08
1848;BME280;924;52.448;13.356;2023-03-19T09:04:40;100924.91;;;13.20;68.52
1848;BME280;924;52.448;13.356;2023-03-19T09:07:05;100922.53;;;13.43;68.08
1848;BME280;924;52.448;13.356;2023-03-19T09:09:31;100918.94;;;13.43;67.31
1848;BME280;924;52.448;13.356;2023-03-19T09:11:58;100910.41;;;13.39;67.25
1848;BME280;924;52.448;13.356;2023-03-19T09:14:24;100903.31;;;13.25;68.86
1848;BME280;924;52.448;13.356;2023-03-19T09:16:49;100906.09;;;13.56;68.11
1848;BME280;924;52.448;13.356;2023-03-19T09:19:16;100905.19;;;13.68;67.51
1848;BME280;924;52.448;13.356;2023-03-19T09:21:41;100907.81;;;13.81;66.84
1848;BME280;924;52.448;13.356;2023-03-19T09:24:07;100905.59;;;13.72;67.34
1848;BME280;924;52.448;13.356;2023-03-19T09:26:33;100908.03;;;13.86;67.51
1848;BME280;924;52.448;13.356;2023-03-19T09:28:58;100906.97;;;13.87;67.87
1848;BME280;924;52.448;13.356;2023-03-19T09:31:23;100907.31;;;13.60;69.88
1848;BME280;924;52.448;13.356;2023-03-19T09:33:49;100908.16;;;13.67;70.11
1848;BME280;924;52.448;13.356;2023-03-19T09:36:15;100905.78;;;13.77;70.29
1848;BME280;924;52.448;13.356;2023-03-19T09:38:40;100894.03;;;14.01;69.41
1848;BME280;924;52.448;13.356;2023-03-19T09:44:01;100896.72;;;14.07;69.97
1848;BME280;924;52.448;13.356;2023-03-19T09:46:39;100894.88;;;14.01;70.67
1848;BME280;924;52.448;13.356;2023-03-19T09:54:10;100909.16;;;14.52;68.13
1848;BME280;924;52.448;13.356;2023-03-19T09:56:37;100901.75;;;14.35;68.47
1848;BME280;924;52.448;13.356;2023-03-19T09:59:03;100907.81;;;14.37;69.30
1848;BME280;924;52.448;13.356;2023-03-19T10:01:39;100915.34;;;14.41;68.65
1848;BME280;924;52.448;13.356;2023-03-19T10:06:43;100916.63;;;14.63;68.31
1848;BME280;924;52.448;13.356;2023-03-19T10:09:33;100920.00;;;14.59;69.51
1848;BME280;924;52.448;13.356;2023-03-19T10:15:15;100915.81;;;14.56;69.51
1848;BME280;924;52.448;13.356;2023-03-19T10:18:02;100910.34;;;14.38;70.10
1848;BME280;924;52.448;13.356;2023-03-19T10:26:14;100921.47;;;14.37;70.43
1848;BME280;924;52.448;13.356;2023-03-19T10:28:43;100925.66;;;14.39;70.98
1848;BME280;924;52.448;13.356;2023-03-19T10:33:48;100918.28;;;14.64;69.34
1848;BME280;924;52.448;13.356;2023-03-19T10:36:18;100913.22;;;15.04;68.51
1848;BME280;924;52.448;13.356;2023-03-19T10:38:45;100918.28;;;14.64;68.78
1848;BME280;924;52.448;13.356;2023-03-19T10:44:02;100909.06;;;15.01;68.55
1848;BME280;924;52.448;13.356;2023-03-19T10:46:39;100906.38;;;15.12;67.43
1848;BME280;924;52.448;13.356;2023-03-19T10:49:11;100905.94;;;14.98;66.36
1848;BME280;924;52.448;13.356;2023-03-19T10:51:37;100907.84;;;14.97;67.20
1848;BME280;924;52.448;13.356;2023-03-19T10:54:22;100912.16;;;15.40;66.20
1848;BME280;924;52.448;13.356;2023-03-19T10:56:48;100902.19;;;16.05;64.58
1848;BME280;924;52.448;13.356;2023-03-19T10:59:25;100916.28;;;16.66;62.45
1848;BME280;924;52.448;13.356;2023-03-19T11:02:01;100915.16;;;17.91;59.57
1848;BME280;924;52.448;13.356;2023-03-19T11:04:27;100919.38;;;18.27;55.93
1848;BME280;924;52.448;13.356;2023-03-19T11:07:10;100908.41;;;18.97;55.43
1848;BME280;924;52.448;13.356;2023-03-19T11:09:38;100911.50;;;19.65;52.71
1848;BME280;924;52.448;13.356;2023-03-19T11:12:23;100911.69;;;19.85;52.48
1848;BME280;924;52.448;13.356;2023-03-19T11:15:01;100918.56;;;19.56;52.49
1848;BME280;924;52.448;13.356;2023-03-19T11:17:48;100914.84;;;20.51;50.22
1848;BME280;924;52.448;13.356;2023-03-19T11:20:19;100907.78;;;21.02;47.67
1848;BME280;924;52.448;13.356;2023-03-19T11:22:49;100917.97;;;20.02;50.56
1848;BME280;924;52.448;13.356;2023-03-19T11:25:41;100910.38;;;19.18;51.80
1848;BME280;924;52.448;13.356;2023-03-19T11:28:24;100917.28;;;18.50;53.84
1848;BME280;924;52.448;13.356;2023-03-19T11:36:28;100919.97;;;17.56;56.05
1848;BME280;924;52.448;13.356;2023-03-19T11:44:17;100900.63;;;17.35;57.51
1848;BME280;924;52.448;13.356;2023-03-19T11:47:14;100889.88;;;17.22;57.90
1848;BME280;924;52.448;13.356;2023-03-19T11:52:37;100890.13;;;17.20;58.25
1848;BME280;924;52.448;13.356;2023-03-19T11:55:28;100891.63;;;17.39;58.52
1848;BME280;924;52.448;13.356;2023-03-19T11:58:10;100888.31;;;17.26;59.10
1848;BME280;924;52.448;13.356;2023-03-19T12:00:49;100890.97;;;17.09;59.54
1848;BME280;924;52.448;13.356;2023-03-19T12:03:40;100884.56;;;17.15;59.43
1848;BME280;924;52.448;13.356;2023-03-19T12:09:01;100895.94;;;17.24;59.43
1848;BME280;924;52.448;13.356;2023-03-19T12:22:59;100890.38;;;17.19;60.51
1848;BME280;924;52.448;13.356;2023-03-19T12:28:09;100889.34;;;17.48;59.25
1848;BME280;924;52.448;13.356;2023-03-19T12:36:17;100882.94;;;17.70;59.41
1848;BME280;924;52.448;13.356;2023-03-19T12:38:51;100890.84;;;17.83;59.05
1848;BME280;924;52.448;13.356;2023-03-19T12:41:25;100881.50;;;18.12;58.48
1848;BME280;924;52.448;13.356;2023-03-19T12:46:47;100875.25;;;18.00;58.70
1848;BME280;924;52.448;13.356;2023-03-19T12:49:23;100880.41;;;17.97;58.91
1848;BME280;924;52.448;13.356;2023-03-19T12:52:01;100869.28;;;18.03;59.48
1848;BME280;924;52.448;13.356;2023-03-19T12:54:38;100867.34;;;18.20;58.19
1848;BME280;924;52.448;13.356;2023-03-19T12:57:24;100869.34;;;18.24;58.34
1848;BME280;924;52.448;13.356;2023-03-19T13:00:24;100867.56;;;18.30;57.53
1848;BME280;924;52.448;13.356;2023-03-19T13:05:54;100878.09;;;18.22;58.92
1848;BME280;924;52.448;13.356;2023-03-19T13:08:28;100870.31;;;18.30;59.13
1848;BME280;924;52.448;13.356;2023-03-19T13:10:57;100872.13;;;18.41;59.20
1848;BME280;924;52.448;13.356;2023-03-19T13:19:02;100865.75;;;18.57;57.31
1848;BME280;924;52.448;13.356;2023-03-19T13:21:34;100877.66;;;18.62;57.43
1848;BME280;924;52.448;13.356;2023-03-19T13:26:48;100866.50;;;18.69;54.89
1848;BME280;924;52.448;13.356;2023-03-19T13:29:26;100867.13;;;18.54;52.88
1848;BME280;924;52.448;13.356;2023-03-19T13:31:59;100849.97;;;18.64;52.06
1848;BME280;924;52.448;13.356;2023-03-19T13:34:26;100854.31;;;18.60;52.45
1848;BME280;924;52.448;13.356;2023-03-19T13:39:52;100851.69;;;18.70;51.51
1848;BME280;924;52.448;13.356;2023-03-19T13:42:38;100856.91;;;18.33;51.45
1848;BME280;924;52.448;13.356;2023-03-19T13:45:29;100856.16;;;18.38;50.22
1848;BME280;924;52.448;13.356;2023-03-19T13:47:57;100854.03;;;18.61;49.50
1848;BME280;924;52.448;13.356;2023-03-19T13:50:53;100861.28;;;18.51;49.60
1848;BME280;924;52.448;13.356;2023-03-19T13:55:57;100862.44;;;18.22;49.50
1848;BME280;924;52.448;13.356;2023-03-19T13:58:27;100863.66;;;18.42;49.21
1848;BME280;924;52.448;13.356;2023-03-19T14:01:35;100854.63;;;18.63;48.84
1848;BME280;924;52.448;13.356;2023-03-19T14:04:03;100844.72;;;18.62;48.62
1848;BME280;924;52.448;13.356;2023-03-19T14:08:54;100842.13;;;18.56;49.23
1848;BME280;924;52.448;13.356;2023-03-19T14:11:23;100841.75;;;18.47;49.06
1848;BME280;924;52.448;13.356;2023-03-19T14:13:53;100844.88;;;18.56;49.94
1848;BME280;924;52.448;13.356;2023-03-19T14:16:24;100838.78;;;18.70;50.75
1848;BME280;924;52.448;13.356;2023-03-19T14:18:55;100839.72;;;18.59;50.55
1848;BME280;924;52.448;13.356;2023-03-19T14:21:40;100840.72;;;18.91;49.88
1848;BME280;924;52.448;13.356;2023-03-19T14:26:49;100833.56;;;18.69;48.70
1848;BME280;924;52.448;13.356;2023-03-19T14:29:15;100830.53;;;19.13;48.91
1848;BME280;924;52.448;13.356;2023-03-19T14:31:51;100833.47;;;19.50;48.53
1848;BME280;924;52.448;13.356;2023-03-19T14:34:26;100830.00;;;19.33;48.13
1848;BME280;924;52.448;13.356;2023-03-19T14:37:03;100831.91;;;19.32;47.17
1848;BME280;924;52.448;13.356;2023-03-19T14:39:39;100835.47;;;19.11;47.74
1848;BME280;924;52.448;13.356;2023-03-19T14:42:25;100830.41;;;19.46;46.81
1848;BME280;924;52.448;13.356;2023-03-19T14:53:47;100825.00;;;19.08;47.51
1848;BME280;924;52.448;13.356;2023-03-19T14:56:19;100821.63;;;19.23;47.15